sensor_id;sensor_type;location;lat;lon;timestamp;temperature;humidity
74224;SHT31;62585;49.706;18.216;2023-04-07T00:01:46;1.36;92.10
74224;SHT31;62585;49.706;18.216;2023-04-07T00:04:11;1.38;92.63
74224;SHT31;62585;49.706;18.216;2023-04-07T00:06:37;1.46;92.46
74224;SHT31;62585;49.706;18.216;2023-04-07T00:09:03;1.45;92.62
74224;SHT31;62585;49.706;18.216;2023-04-07T00:11:29;1.31;92.94
74224;SHT31;62585;49.706;18.216;2023-04-07T00:13:54;1.29;93.29
74224;SHT31;62585;49.706;18.216;2023-04-07T00:16:20;1.32;93.02
74224;SHT31;62585;49.706;18.216;2023-04-07T00:18:46;1.25;93.11
74224;SHT31;62585;49.706;18.216;2023-04-07T00:21:12;1.29;93.18
74224;SHT31;62585;49.706;18.216;2023-04-07T00:23:37;1.43;92.76
74224;SHT31;62585;49.706;18.216;2023-04-07T00:26:03;1.38;92.62
74224;SHT31;62585;49.706;18.216;2023-04-07T00:28:29;1.22;93.34
74224;SHT31;62585;49.706;18.216;2023-04-07T00:30:55;1.31;93.53
74224;SHT31;62585;49.706;18.216;2023-04-07T00:33:20;1.43;93.07
74224;SHT31;62585;49.706;18.216;2023-04-07T00:35:46;1.46;92.61
74224;SHT31;62585;49.706;18.216;2023-04-07T00:38:12;1.45;92.38
74224;SHT31;62585;49.706;18.216;2023-04-07T00:40:37;1.38;92.60
74224;SHT31;62585;49.706;18.216;2023-04-07T00:43:03;1.43;92.57
74224;SHT31;62585;49.706;18.216;2023-04-07T00:45:29;1.43;93.02
74224;SHT31;62585;49.706;18.216;2023-04-07T00:47:56;1.42;93.04
74224;SHT31;62585;49.706;18.216;2023-04-07T00:50:22;1.40;92.47
74224;SHT31;62585;49.706;18.216;2023-04-07T00:52:49;1.45;92.48
74224;SHT31;62585;49.706;18.216;2023-04-07T00:55:15;1.36;92.44
74224;SHT31;62585;49.706;18.216;2023-04-07T00:57:41;1.39;92.45
74224;SHT31;62585;49.706;18.216;2023-04-07T01:00:07;1.36;92.71
74224;SHT31;62585;49.706;18.216;2023-04-07T01:02:41;1.31;93.04
74224;SHT31;62585;49.706;18.216;2023-04-07T01:05:15;1.35;92.89
74224;SHT31;62585;49.706;18.216;2023-04-07T01:07:57;1.42;92.95
74224;SHT31;62585;49.706;18.216;2023-04-07T01:10:50;1.32;92.64
74224;SHT31;62585;49.706;18.216;2023-04-07T01:13:41;1.29;93.18
74224;SHT31;62585;49.706;18.216;2023-04-07T01:16:11;1.43;92.85
74224;SHT31;62585;49.706;18.216;2023-04-07T01:18:40;1.43;93.10
74224;SHT31;62585;49.706;18.216;2023-04-07T01:21:14;1.35;92.89
74224;SHT31;62585;49.706;18.216;2023-04-07T01:26:45;1.34;93.13
74224;SHT31;62585;49.706;18.216;2023-04-07T01:31:50;1.50;92.30
74224;SHT31;62585;49.706;18.216;2023-04-07T01:34:16;1.45;92.51
74224;SHT31;62585;49.706;18.216;2023-04-07T01:36:44;1.50;92.37
74224;SHT31;62585;49.706;18.216;2023-04-07T01:39:10;1.53;92.28
74224;SHT31;62585;49.706;18.216;2023-04-07T01:41:37;1.49;92.77
74224;SHT31;62585;49.706;18.216;2023-04-07T01:44:05;1.52;92.25
74224;SHT31;62585;49.706;18.216;2023-04-07T01:46:32;1.49;92.37
74224;SHT31;62585;49.706;18.216;2023-04-07T01:48:58;1.59;92.30
74224;SHT31;62585;49.706;18.216;2023-04-07T01:51:25;1.43;92.35
74224;SHT31;62585;49.706;18.216;2023-04-07T01:53:52;1.56;92.29
74224;SHT31;62585;49.706;18.216;2023-04-07T01:56:18;1.58;92.22
74224;SHT31;62585;49.706;18.216;2023-04-07T01:58:43;1.55;92.65
74224;SHT31;62585;49.706;18.216;2023-04-07T02:01:09;1.48;92.63
74224;SHT31;62585;49.706;18.216;2023-04-07T02:06:14;1.43;92.68
74224;SHT31;62585;49.706;18.216;2023-04-07T02:08:46;1.38;92.73
74224;SHT31;62585;49.706;18.216;2023-04-07T02:11:17;1.45;92.64
74224;SHT31;62585;49.706;18.216;2023-04-07T02:13:44;1.50;92.87
74224;SHT31;62585;49.706;18.216;2023-04-07T02:16:11;1.48;92.60
74224;SHT31;62585;49.706;18.216;2023-04-07T02:18:37;1.45;92.74
74224;SHT31;62585;49.706;18.216;2023-04-07T02:21:04;1.40;93.21
74224;SHT31;62585;49.706;18.216;2023-04-07T02:23:30;1.35;93.20
74224;SHT31;62585;49.706;18.216;2023-04-07T02:25:59;1.39;93.37
74224;SHT31;62585;49.706;18.216;2023-04-07T02:28:24;1.45;93.09
74224;SHT31;62585;49.706;18.216;2023-04-07T02:30:50;1.46;93.00
74224;SHT31;62585;49.706;18.216;2023-04-07T02:33:16;1.36;93.22
74224;SHT31;62585;49.706;18.216;2023-04-07T02:35:42;1.42;93.31
74224;SHT31;62585;49.706;18.216;2023-04-07T02:38:07;1.40;93.34
74224;SHT31;62585;49.706;18.216;2023-04-07T02:40:33;1.48;92.88
74224;SHT31;62585;49.706;18.216;2023-04-07T02:43:01;1.43;93.10
74224;SHT31;62585;49.706;18.216;2023-04-07T02:45:27;1.48;93.00
74224;SHT31;62585;49.706;18.216;2023-04-07T02:47:52;1.53;92.71
74224;SHT31;62585;49.706;18.216;2023-04-07T02:50:18;1.49;92.71
74224;SHT31;62585;49.706;18.216;2023-04-07T02:52:44;1.45;92.99
74224;SHT31;62585;49.706;18.216;2023-04-07T02:55:10;1.52;92.54
74224;SHT31;62585;49.706;18.216;2023-04-07T02:57:35;1.46;92.74
74224;SHT31;62585;49.706;18.216;2023-04-07T03:00:02;1.43;92.86
74224;SHT31;62585;49.706;18.216;2023-04-07T03:02:28;1.55;92.86
74224;SHT31;62585;49.706;18.216;2023-04-07T03:04:54;1.46;92.68
74224;SHT31;62585;49.706;18.216;2023-04-07T03:07:20;1.45;92.79
74224;SHT31;62585;49.706;18.216;2023-04-07T03:09:46;1.46;92.86
74224;SHT31;62585;49.706;18.216;2023-04-07T03:12:11;1.43;92.84
74224;SHT31;62585;49.706;18.216;2023-04-07T03:14:37;1.50;92.73
74224;SHT31;62585;49.706;18.216;2023-04-07T03:17:03;1.55;93.07
74224;SHT31;62585;49.706;18.216;2023-04-07T03:19:29;1.49;93.02
74224;SHT31;62585;49.706;18.216;2023-04-07T03:21:54;1.49;92.99
74224;SHT31;62585;49.706;18.216;2023-04-07T03:24:20;1.50;93.11
74224;SHT31;62585;49.706;18.216;2023-04-07T03:26:46;1.46;93.29
74224;SHT31;62585;49.706;18.216;2023-04-07T03:29:12;1.39;93.71
74224;SHT31;62585;49.706;18.216;2023-04-07T03:31:38;1.46;93.19
74224;SHT31;62585;49.706;18.216;2023-04-07T03:34:04;1.52;93.04
74224;SHT31;62585;49.706;18.216;2023-04-07T03:36:29;1.49;92.79
74224;SHT31;62585;49.706;18.216;2023-04-07T03:38:56;1.48;93.11
74224;SHT31;62585;49.706;18.216;2023-04-07T03:41:22;1.49;93.17
74224;SHT31;62585;49.706;18.216;2023-04-07T03:43:48;1.63;92.84
74224;SHT31;62585;49.706;18.216;2023-04-07T03:46:14;1.56;93.00
74224;SHT31;62585;49.706;18.216;2023-04-07T03:48:40;1.62;92.79
74224;SHT31;62585;49.706;18.216;2023-04-07T03:51:05;1.60;92.66
74224;SHT31;62585;49.706;18.216;2023-04-07T03:53:31;1.53;92.52
74224;SHT31;62585;49.706;18.216;2023-04-07T03:55:57;1.52;93.04
74224;SHT31;62585;49.706;18.216;2023-04-07T03:58:23;1.49;93.08
74224;SHT31;62585;49.706;18.216;2023-04-07T04:00:49;1.52;92.84
74224;SHT31;62585;49.706;18.216;2023-04-07T04:03:15;1.48;92.93
74224;SHT31;62585;49.706;18.216;2023-04-07T04:05:41;1.48;93.20
74224;SHT31;62585;49.706;18.216;2023-04-07T04:08:07;1.46;93.29
74224;SHT31;62585;49.706;18.216;2023-04-07T04:10:32;1.49;92.98
74224;SHT31;62585;49.706;18.216;2023-04-07T04:12:58;1.50;92.87
74224;SHT31;62585;49.706;18.216;2023-04-07T04:15:25;1.43;92.86
74224;SHT31;62585;49.706;18.216;2023-04-07T04:17:51;1.46;93.45
74224;SHT31;62585;49.706;18.216;2023-04-07T04:20:17;1.49;93.10
74224;SHT31;62585;49.706;18.216;2023-04-07T04:22:43;1.40;93.20
74224;SHT31;62585;49.706;18.216;2023-04-07T04:25:08;1.39;93.44
74224;SHT31;62585;49.706;18.216;2023-04-07T04:27:34;1.43;93.16
74224;SHT31;62585;49.706;18.216;2023-04-07T04:30:00;1.39;93.18
74224;SHT31;62585;49.706;18.216;2023-04-07T04:32:26;1.46;93.32
74224;SHT31;62585;49.706;18.216;2023-04-07T04:34:52;1.43;93.45
74224;SHT31;62585;49.706;18.216;2023-04-07T04:37:18;1.42;93.44
74224;SHT31;62585;49.706;18.216;2023-04-07T04:39:43;1.39;93.74
74224;SHT31;62585;49.706;18.216;2023-04-07T04:42:09;1.40;93.64
74224;SHT31;62585;49.706;18.216;2023-04-07T04:44:35;1.43;93.54
74224;SHT31;62585;49.706;18.216;2023-04-07T04:47:01;1.50;93.21
74224;SHT31;62585;49.706;18.216;2023-04-07T04:49:27;1.52;93.28
74224;SHT31;62585;49.706;18.216;2023-04-07T04:51:53;1.50;93.18
74224;SHT31;62585;49.706;18.216;2023-04-07T04:54:18;1.50;93.25
74224;SHT31;62585;49.706;18.216;2023-04-07T04:56:44;1.49;93.52
74224;SHT31;62585;49.706;18.216;2023-04-07T04:59:10;1.58;93.04
74224;SHT31;62585;49.706;18.216;2023-04-07T05:01:36;1.56;93.02
74224;SHT31;62585;49.706;18.216;2023-04-07T05:04:01;1.64;92.61
74224;SHT31;62585;49.706;18.216;2023-04-07T05:06:27;1.58;93.12
74224;SHT31;62585;49.706;18.216;2023-04-07T05:08:53;1.46;92.93
74224;SHT31;62585;49.706;18.216;2023-04-07T05:11:19;1.53;93.21
74224;SHT31;62585;49.706;18.216;2023-04-07T05:13:46;1.53;93.05
74224;SHT31;62585;49.706;18.216;2023-04-07T05:16:12;1.56;93.17
74224;SHT31;62585;49.706;18.216;2023-04-07T05:18:38;1.58;92.94
74224;SHT31;62585;49.706;18.216;2023-04-07T05:21:03;1.48;93.12
74224;SHT31;62585;49.706;18.216;2023-04-07T05:23:29;1.50;92.93
74224;SHT31;62585;49.706;18.216;2023-04-07T05:25:55;1.48;93.27
74224;SHT31;62585;49.706;18.216;2023-04-07T05:28:21;1.56;93.07
74224;SHT31;62585;49.706;18.216;2023-04-07T05:30:47;1.49;93.35
74224;SHT31;62585;49.706;18.216;2023-04-07T05:33:12;1.58;93.16
74224;SHT31;62585;49.706;18.216;2023-04-07T05:35:38;1.59;92.93
74224;SHT31;62585;49.706;18.216;2023-04-07T05:38:04;1.59;93.22
74224;SHT31;62585;49.706;18.216;2023-04-07T05:40:30;1.62;93.03
74224;SHT31;62585;49.706;18.216;2023-04-07T05:42:56;1.67;92.85
74224;SHT31;62585;49.706;18.216;2023-04-07T05:45:22;1.62;93.04
74224;SHT31;62585;49.706;18.216;2023-04-07T05:47:47;1.64;93.06
74224;SHT31;62585;49.706;18.216;2023-04-07T05:50:16;1.67;92.97
74224;SHT31;62585;49.706;18.216;2023-04-07T05:52:41;1.58;93.26
74224;SHT31;62585;49.706;18.216;2023-04-07T05:55:08;1.60;93.08
74224;SHT31;62585;49.706;18.216;2023-04-07T05:57:33;1.66;92.84
74224;SHT31;62585;49.706;18.216;2023-04-07T05:59:59;1.62;92.75
74224;SHT31;62585;49.706;18.216;2023-04-07T06:02:25;1.67;92.81
74224;SHT31;62585;49.706;18.216;2023-04-07T06:04:51;1.67;92.70
74224;SHT31;62585;49.706;18.216;2023-04-07T06:07:16;1.64;93.14
74224;SHT31;62585;49.706;18.216;2023-04-07T06:09:42;1.60;92.99
74224;SHT31;62585;49.706;18.216;2023-04-07T06:12:08;1.64;93.07
74224;SHT31;62585;49.706;18.216;2023-04-07T06:14:37;1.62;92.81
74224;SHT31;62585;49.706;18.216;2023-04-07T06:17:02;1.56;93.27
74224;SHT31;62585;49.706;18.216;2023-04-07T06:19:28;1.69;92.97
74224;SHT31;62585;49.706;18.216;2023-04-07T06:21:54;1.70;92.57
74224;SHT31;62585;49.706;18.216;2023-04-07T06:24:20;1.76;92.84
74224;SHT31;62585;49.706;18.216;2023-04-07T06:26:51;1.76;92.32
74224;SHT31;62585;49.706;18.216;2023-04-07T06:29:17;1.71;92.45
74224;SHT31;62585;49.706;18.216;2023-04-07T06:31:42;1.76;92.62
74224;SHT31;62585;49.706;18.216;2023-04-07T06:34:08;1.77;92.83
74224;SHT31;62585;49.706;18.216;2023-04-07T06:36:34;1.81;92.72
74224;SHT31;62585;49.706;18.216;2023-04-07T06:39:00;1.83;92.44
74224;SHT31;62585;49.706;18.216;2023-04-07T06:41:26;1.81;92.57
74224;SHT31;62585;49.706;18.216;2023-04-07T06:43:52;1.86;92.90
74224;SHT31;62585;49.706;18.216;2023-04-07T06:46:18;1.90;92.37
74224;SHT31;62585;49.706;18.216;2023-04-07T06:48:45;1.90;92.48
74224;SHT31;62585;49.706;18.216;2023-04-07T06:51:11;1.96;92.00
74224;SHT31;62585;49.706;18.216;2023-04-07T06:53:37;2.01;91.81
74224;SHT31;62585;49.706;18.216;2023-04-07T06:56:07;1.98;91.83
74224;SHT31;62585;49.706;18.216;2023-04-07T06:58:34;1.91;91.76
74224;SHT31;62585;49.706;18.216;2023-04-07T07:01:00;1.94;92.29
74224;SHT31;62585;49.706;18.216;2023-04-07T07:03:27;1.88;92.56
74224;SHT31;62585;49.706;18.216;2023-04-07T07:05:57;1.86;92.90
74224;SHT31;62585;49.706;18.216;2023-04-07T07:08:24;1.80;92.73
74224;SHT31;62585;49.706;18.216;2023-04-07T07:10:49;1.79;92.81
74224;SHT31;62585;49.706;18.216;2023-04-07T07:13:16;1.69;92.62
74224;SHT31;62585;49.706;18.216;2023-04-07T07:15:42;1.64;93.30
74224;SHT31;62585;49.706;18.216;2023-04-07T07:18:08;1.70;92.95
74224;SHT31;62585;49.706;18.216;2023-04-07T07:20:34;1.80;93.18
74224;SHT31;62585;49.706;18.216;2023-04-07T07:23:00;1.90;92.49
74224;SHT31;62585;49.706;18.216;2023-04-07T07:25:26;2.04;92.25
74224;SHT31;62585;49.706;18.216;2023-04-07T07:27:52;2.15;91.76
74224;SHT31;62585;49.706;18.216;2023-04-07T07:30:20;2.36;90.86
74224;SHT31;62585;49.706;18.216;2023-04-07T07:32:46;2.32;90.05
74224;SHT31;62585;49.706;18.216;2023-04-07T07:35:12;2.31;90.18
74224;SHT31;62585;49.706;18.216;2023-04-07T07:37:38;2.31;90.36
74224;SHT31;62585;49.706;18.216;2023-04-07T07:40:04;2.29;90.61
74224;SHT31;62585;49.706;18.216;2023-04-07T07:42:30;2.24;90.91
74224;SHT31;62585;49.706;18.216;2023-04-07T07:44:56;2.29;90.61
74224;SHT31;62585;49.706;18.216;2023-04-07T07:47:22;2.20;91.19
74224;SHT31;62585;49.706;18.216;2023-04-07T07:49:48;2.22;91.12
74224;SHT31;62585;49.706;18.216;2023-04-07T07:52:14;2.24;90.85
74224;SHT31;62585;49.706;18.216;2023-04-07T07:54:40;2.22;90.71
74224;SHT31;62585;49.706;18.216;2023-04-07T07:57:05;2.29;90.93
74224;SHT31;62585;49.706;18.216;2023-04-07T07:59:31;2.31;90.55
74224;SHT31;62585;49.706;18.216;2023-04-07T08:01:57;2.32;90.78
74224;SHT31;62585;49.706;18.216;2023-04-07T08:04:23;2.27;91.10
74224;SHT31;62585;49.706;18.216;2023-04-07T08:06:50;2.38;90.93
74224;SHT31;62585;49.706;18.216;2023-04-07T08:09:17;2.28;91.20
74224;SHT31;62585;49.706;18.216;2023-04-07T08:11:43;2.41;91.25
74224;SHT31;62585;49.706;18.216;2023-04-07T08:14:08;2.39;91.52
74224;SHT31;62585;49.706;18.216;2023-04-07T08:16:34;2.48;91.61
74224;SHT31;62585;49.706;18.216;2023-04-07T08:19:00;2.53;91.76
74224;SHT31;62585;49.706;18.216;2023-04-07T08:21:27;2.56;91.59
74224;SHT31;62585;49.706;18.216;2023-04-07T08:23:53;2.76;91.25
74224;SHT31;62585;49.706;18.216;2023-04-07T08:26:19;2.73;90.72
74224;SHT31;62585;49.706;18.216;2023-04-07T08:28:47;2.71;89.93
74224;SHT31;62585;49.706;18.216;2023-04-07T08:31:13;2.77;92.03
74224;SHT31;62585;49.706;18.216;2023-04-07T08:33:39;2.87;90.71
74224;SHT31;62585;49.706;18.216;2023-04-07T08:36:05;3.05;90.32
74224;SHT31;62585;49.706;18.216;2023-04-07T08:38:31;3.08;90.61
74224;SHT31;62585;49.706;18.216;2023-04-07T08:41:02;3.21;88.98
74224;SHT31;62585;49.706;18.216;2023-04-07T08:43:29;3.24;89.84
74224;SHT31;62585;49.706;18.216;2023-04-07T08:45:56;3.25;90.66
74224;SHT31;62585;49.706;18.216;2023-04-07T08:48:23;3.25;89.85
74224;SHT31;62585;49.706;18.216;2023-04-07T08:50:51;3.25;89.86
74224;SHT31;62585;49.706;18.216;2023-04-07T08:53:51;3.24;89.88
74224;SHT31;62585;49.706;18.216;2023-04-07T08:56:16;3.27;90.08
74224;SHT31;62585;49.706;18.216;2023-04-07T08:58:44;3.20;89.46
74224;SHT31;62585;49.706;18.216;2023-04-07T09:01:10;3.34;91.17
74224;SHT31;62585;49.706;18.216;2023-04-07T09:03:37;3.34;89.45
74224;SHT31;62585;49.706;18.216;2023-04-07T09:06:03;3.28;89.07
74224;SHT31;62585;49.706;18.216;2023-04-07T09:08:29;3.28;90.60
74224;SHT31;62585;49.706;18.216;2023-04-07T09:10:56;3.30;89.54
74224;SHT31;62585;49.706;18.216;2023-04-07T09:13:23;3.34;89.96
74224;SHT31;62585;49.706;18.216;2023-04-07T09:15:49;3.28;90.56
74224;SHT31;62585;49.706;18.216;2023-04-07T09:18:15;3.22;89.88
74224;SHT31;62585;49.706;18.216;2023-04-07T09:20:57;3.20;90.36
74224;SHT31;62585;49.706;18.216;2023-04-07T09:23:34;3.18;90.73
74224;SHT31;62585;49.706;18.216;2023-04-07T09:26:18;3.32;90.94
74224;SHT31;62585;49.706;18.216;2023-04-07T09:28:47;3.22;90.24
74224;SHT31;62585;49.706;18.216;2023-04-07T09:31:13;3.15;90.58
74224;SHT31;62585;49.706;18.216;2023-04-07T09:33:39;3.20;91.20
74224;SHT31;62585;49.706;18.216;2023-04-07T09:36:05;3.22;90.30
74224;SHT31;62585;49.706;18.216;2023-04-07T09:38:35;3.24;90.00
74224;SHT31;62585;49.706;18.216;2023-04-07T09:41:09;3.43;90.26
74224;SHT31;62585;49.706;18.216;2023-04-07T09:43:38;3.54;90.65
74224;SHT31;62585;49.706;18.216;2023-04-07T09:46:08;3.45;90.02
74224;SHT31;62585;49.706;18.216;2023-04-07T09:48:35;3.43;89.76
74224;SHT31;62585;49.706;18.216;2023-04-07T09:51:12;3.49;89.96
74224;SHT31;62585;49.706;18.216;2023-04-07T09:53:48;3.48;90.29
74224;SHT31;62585;49.706;18.216;2023-04-07T09:56:19;3.45;89.79
74224;SHT31;62585;49.706;18.216;2023-04-07T09:58:48;3.35;90.46
74224;SHT31;62585;49.706;18.216;2023-04-07T10:01:16;3.46;90.37
74224;SHT31;62585;49.706;18.216;2023-04-07T10:03:44;3.45;89.94
74224;SHT31;62585;49.706;18.216;2023-04-07T10:06:11;3.46;89.75
74224;SHT31;62585;49.706;18.216;2023-04-07T10:08:40;3.56;89.39
74224;SHT31;62585;49.706;18.216;2023-04-07T10:11:08;3.55;89.70
74224;SHT31;62585;49.706;18.216;2023-04-07T10:13:34;3.62;90.88
74224;SHT31;62585;49.706;18.216;2023-04-07T10:16:05;3.78;90.23
74224;SHT31;62585;49.706;18.216;2023-04-07T10:18:34;3.79;89.48
74224;SHT31;62585;49.706;18.216;2023-04-07T10:21:02;3.72;89.89
74224;SHT31;62585;49.706;18.216;2023-04-07T10:26:57;3.76;90.57
74224;SHT31;62585;49.706;18.216;2023-04-07T10:29:24;3.76;90.35
74224;SHT31;62585;49.706;18.216;2023-04-07T10:31:51;3.79;88.96
74224;SHT31;62585;49.706;18.216;2023-04-07T10:37:16;3.69;89.52
74224;SHT31;62585;49.706;18.216;2023-04-07T10:39:46;3.79;89.84
74224;SHT31;62585;49.706;18.216;2023-04-07T10:45:07;3.90;89.68
74224;SHT31;62585;49.706;18.216;2023-04-07T10:50:28;4.08;89.13
74224;SHT31;62585;49.706;18.216;2023-04-07T10:53:13;4.08;87.67
74224;SHT31;62585;49.706;18.216;2023-04-07T10:55:46;4.06;86.47
74224;SHT31;62585;49.706;18.216;2023-04-07T10:58:30;4.00;87.02
74224;SHT31;62585;49.706;18.216;2023-04-07T11:03:26;4.07;87.66
74224;SHT31;62585;49.706;18.216;2023-04-07T11:05:52;4.07;88.57
74224;SHT31;62585;49.706;18.216;2023-04-07T11:08:44;4.10;87.38
74224;SHT31;62585;49.706;18.216;2023-04-07T11:11:13;4.13;87.23
74224;SHT31;62585;49.706;18.216;2023-04-07T11:16:12;4.22;88.97
74224;SHT31;62585;49.706;18.216;2023-04-07T11:18:39;4.13;87.95
74224;SHT31;62585;49.706;18.216;2023-04-07T11:21:06;4.13;88.23
74224;SHT31;62585;49.706;18.216;2023-04-07T11:23:43;4.06;88.18
74224;SHT31;62585;49.706;18.216;2023-04-07T11:26:13;4.13;88.01
74224;SHT31;62585;49.706;18.216;2023-04-07T11:28:46;4.11;87.67
74224;SHT31;62585;49.706;18.216;2023-04-07T11:31:29;4.22;88.87
74224;SHT31;62585;49.706;18.216;2023-04-07T11:33:58;4.16;87.76
74224;SHT31;62585;49.706;18.216;2023-04-07T11:36:27;4.25;87.95
74224;SHT31;62585;49.706;18.216;2023-04-07T11:38:53;4.27;87.90
74224;SHT31;62585;49.706;18.216;2023-04-07T11:41:20;4.27;87.06
74224;SHT31;62585;49.706;18.216;2023-04-07T11:43:45;4.14;87.18
74224;SHT31;62585;49.706;18.216;2023-04-07T11:46:16;4.13;87.17
74224;SHT31;62585;49.706;18.216;2023-04-07T11:48:43;4.21;88.09
74224;SHT31;62585;49.706;18.216;2023-04-07T11:51:17;4.22;87.84
74224;SHT31;62585;49.706;18.216;2023-04-07T11:53:44;4.22;87.70
74224;SHT31;62585;49.706;18.216;2023-04-07T11:56:13;4.20;86.49
74224;SHT31;62585;49.706;18.216;2023-04-07T11:58:50;4.25;88.42
74224;SHT31;62585;49.706;18.216;2023-04-07T12:01:17;4.24;87.45
74224;SHT31;62585;49.706;18.216;2023-04-07T12:06:35;4.21;88.44
74224;SHT31;62585;49.706;18.216;2023-04-07T12:09:04;4.18;89.45
74224;SHT31;62585;49.706;18.216;2023-04-07T12:11:31;4.27;89.18
74224;SHT31;62585;49.706;18.216;2023-04-07T12:13:57;4.24;88.74
74224;SHT31;62585;49.706;18.216;2023-04-07T12:16:23;4.25;89.14
74224;SHT31;62585;49.706;18.216;2023-04-07T12:18:49;4.31;89.02
74224;SHT31;62585;49.706;18.216;2023-04-07T12:21:17;4.21;88.76
74224;SHT31;62585;49.706;18.216;2023-04-07T12:23:43;4.22;88.19
74224;SHT31;62585;49.706;18.216;2023-04-07T12:26:09;4.21;88.55
74224;SHT31;62585;49.706;18.216;2023-04-07T12:28:36;4.25;88.37
74224;SHT31;62585;49.706;18.216;2023-04-07T12:31:03;4.28;88.86
74224;SHT31;62585;49.706;18.216;2023-04-07T12:33:29;4.21;89.03
74224;SHT31;62585;49.706;18.216;2023-04-07T12:35:56;4.27;89.17
74224;SHT31;62585;49.706;18.216;2023-04-07T12:38:22;4.25;88.62
74224;SHT31;62585;49.706;18.216;2023-04-07T12:40:48;4.18;88.99
74224;SHT31;62585;49.706;18.216;2023-04-07T12:43:14;4.25;88.45
74224;SHT31;62585;49.706;18.216;2023-04-07T12:45:40;4.22;89.03
74224;SHT31;62585;49.706;18.216;2023-04-07T12:48:06;4.21;89.31
74224;SHT31;62585;49.706;18.216;2023-04-07T12:50:34;4.25;89.64
74224;SHT31;62585;49.706;18.216;2023-04-07T12:53:00;4.33;89.43
74224;SHT31;62585;49.706;18.216;2023-04-07T12:55:28;4.27;89.58
74224;SHT31;62585;49.706;18.216;2023-04-07T12:57:55;4.22;89.68
74224;SHT31;62585;49.706;18.216;2023-04-07T13:00:21;4.18;89.68
74224;SHT31;62585;49.706;18.216;2023-04-07T13:02:46;4.21;90.25
74224;SHT31;62585;49.706;18.216;2023-04-07T13:05:12;4.24;90.69
74224;SHT31;62585;49.706;18.216;2023-04-07T13:07:38;4.21;91.30
74224;SHT31;62585;49.706;18.216;2023-04-07T13:10:04;4.24;90.78
74224;SHT31;62585;49.706;18.216;2023-04-07T13:12:32;4.14;90.43
74224;SHT31;62585;49.706;18.216;2023-04-07T13:14:58;4.13;90.82
74224;SHT31;62585;49.706;18.216;2023-04-07T13:17:24;4.07;91.85
74224;SHT31;62585;49.706;18.216;2023-04-07T13:19:50;4.13;91.65
74224;SHT31;62585;49.706;18.216;2023-04-07T13:22:15;4.17;91.50
74224;SHT31;62585;49.706;18.216;2023-04-07T13:24:42;4.08;91.46
74224;SHT31;62585;49.706;18.216;2023-04-07T13:27:08;4.10;91.13
74224;SHT31;62585;49.706;18.216;2023-04-07T13:29:34;4.07;91.38
74224;SHT31;62585;49.706;18.216;2023-04-07T13:32:06;4.06;91.19
74224;SHT31;62585;49.706;18.216;2023-04-07T13:34:35;4.06;91.59
74224;SHT31;62585;49.706;18.216;2023-04-07T13:37:02;4.04;91.37
74224;SHT31;62585;49.706;18.216;2023-04-07T13:39:29;4.00;91.15
74224;SHT31;62585;49.706;18.216;2023-04-07T13:41:55;4.06;90.68
74224;SHT31;62585;49.706;18.216;2023-04-07T13:44:21;4.07;91.62
74224;SHT31;62585;49.706;18.216;2023-04-07T13:46:47;4.10;91.73
74224;SHT31;62585;49.706;18.216;2023-04-07T13:49:13;4.14;91.29
74224;SHT31;62585;49.706;18.216;2023-04-07T13:51:42;4.11;91.50
74224;SHT31;62585;49.706;18.216;2023-04-07T13:54:08;4.11;91.80
74224;SHT31;62585;49.706;18.216;2023-04-07T13:56:33;4.13;91.74
74224;SHT31;62585;49.706;18.216;2023-04-07T13:59:06;4.14;92.04
74224;SHT31;62585;49.706;18.216;2023-04-07T14:01:32;4.04;91.93
74224;SHT31;62585;49.706;18.216;2023-04-07T14:04:03;4.13;91.71
74224;SHT31;62585;49.706;18.216;2023-04-07T14:06:29;4.20;92.06
74224;SHT31;62585;49.706;18.216;2023-04-07T14:08:57;4.16;92.07
74224;SHT31;62585;49.706;18.216;2023-04-07T14:11:23;4.21;92.24
74224;SHT31;62585;49.706;18.216;2023-04-07T14:13:50;4.21;91.83
74224;SHT31;62585;49.706;18.216;2023-04-07T14:16:16;4.16;92.24
74224;SHT31;62585;49.706;18.216;2023-04-07T14:18:43;4.24;92.65
74224;SHT31;62585;49.706;18.216;2023-04-07T14:21:08;4.28;92.19
74224;SHT31;62585;49.706;18.216;2023-04-07T14:23:36;4.22;91.87
74224;SHT31;62585;49.706;18.216;2023-04-07T14:26:02;4.22;92.01
74224;SHT31;62585;49.706;18.216;2023-04-07T14:28:28;4.18;92.20
74224;SHT31;62585;49.706;18.216;2023-04-07T14:30:54;4.25;92.37
74224;SHT31;62585;49.706;18.216;2023-04-07T14:33:20;4.17;92.41
74224;SHT31;62585;49.706;18.216;2023-04-07T14:35:47;4.17;92.31
74224;SHT31;62585;49.706;18.216;2023-04-07T14:38:13;4.18;92.39
74224;SHT31;62585;49.706;18.216;2023-04-07T14:40:39;4.16;92.05
74224;SHT31;62585;49.706;18.216;2023-04-07T14:43:05;3.96;92.29
74224;SHT31;62585;49.706;18.216;2023-04-07T14:45:32;4.03;92.60
74224;SHT31;62585;49.706;18.216;2023-04-07T14:47:59;4.06;92.68
74224;SHT31;62585;49.706;18.216;2023-04-07T14:50:25;4.10;92.59
74224;SHT31;62585;49.706;18.216;2023-04-07T14:52:52;4.04;92.14
74224;SHT31;62585;49.706;18.216;2023-04-07T14:55:18;4.04;91.92
74224;SHT31;62585;49.706;18.216;2023-04-07T14:57:44;3.97;92.31
74224;SHT31;62585;49.706;18.216;2023-04-07T15:00:10;3.99;92.18
74224;SHT31;62585;49.706;18.216;2023-04-07T15:02:36;3.89;92.14
74224;SHT31;62585;49.706;18.216;2023-04-07T15:05:01;3.83;92.12
74224;SHT31;62585;49.706;18.216;2023-04-07T15:07:29;3.83;92.37
74224;SHT31;62585;49.706;18.216;2023-04-07T15:09:55;3.82;92.54
74224;SHT31;62585;49.706;18.216;2023-04-07T15:12:21;3.89;92.29
74224;SHT31;62585;49.706;18.216;2023-04-07T15:14:50;3.78;91.08
74224;SHT31;62585;49.706;18.216;2023-04-07T15:17:16;3.75;92.04
74224;SHT31;62585;49.706;18.216;2023-04-07T15:19:42;3.78;92.34
74224;SHT31;62585;49.706;18.216;2023-04-07T15:22:08;3.69;92.46
74224;SHT31;62585;49.706;18.216;2023-04-07T15:24:34;3.65;92.13
74224;SHT31;62585;49.706;18.216;2023-04-07T15:27:00;3.52;91.78
74224;SHT31;62585;49.706;18.216;2023-04-07T15:29:29;3.41;92.03
74224;SHT31;62585;49.706;18.216;2023-04-07T15:31:57;3.43;92.46
74224;SHT31;62585;49.706;18.216;2023-04-07T15:34:23;3.39;92.30
74224;SHT31;62585;49.706;18.216;2023-04-07T15:36:49;3.38;92.38
74224;SHT31;62585;49.706;18.216;2023-04-07T15:39:14;3.35;92.70
74224;SHT31;62585;49.706;18.216;2023-04-07T15:41:41;3.24;91.90
74224;SHT31;62585;49.706;18.216;2023-04-07T15:44:07;3.14;91.79
74224;SHT31;62585;49.706;18.216;2023-04-07T15:46:33;3.25;92.40
74224;SHT31;62585;49.706;18.216;2023-04-07T15:48:59;3.17;92.77
74224;SHT31;62585;49.706;18.216;2023-04-07T15:51:28;3.22;92.84
74224;SHT31;62585;49.706;18.216;2023-04-07T15:53:53;3.20;93.20
74224;SHT31;62585;49.706;18.216;2023-04-07T15:56:19;3.31;93.02
74224;SHT31;62585;49.706;18.216;2023-04-07T15:58:48;3.32;93.21